メインページ
METAR-TAF:

METAR-TAF

空港 :

サスカトゥーン, サスカチュワン州, カナダ

サスカトゥーン・ジョン・G・ディーフェンベーカー国際空港

緯度: 52-10N, 経度: 106-41W, 海抜: 501m

現時点の気象観測

当レポートは18分前の23:00(UTC)に作成
の風 17kt、最大27ktの突風を伴う
気温 22°C
湿度 23%
気圧 1012 hPa
視程: 24.1km
高度25000ftの雲はほとんどない

METAR: CYXE 272300Z 35017G27KT 15SM FEW250 22/00 A2987 RMK CI2 SLP127 DENSITY ALT 2900FT

時間: 17:18 (23:18 UTC)

予報

当レポートは5時間37分前の17:41(UTC)に作成
予報は27日の 18時(UTC)から 28日の 18時(UTC)まで有効
の風 18kt、最大28ktの突風を伴う
視程: 10km
高度8000ftの雲は散在している
28日の 00時(UTC)から 28日の 02時(UTC)まで徐々に
北/北西の風 10kt
28日の 1700時(UTC)から
北/北西の風 15kt、最大25ktの突風を伴う
視程: 10km
高度5000ftの雲は散在している

TAF: CYXE 271741Z 2718/2818 35018G28KT P6SM SCT080 BECMG 2800/2802 33010KT FM281700 34015G25KT P6SM SCT050 RMK NXT FCST BY 280000Z

4,000以上の空港の気象観測と天気予報(METAR報とTAF報)

利用可能な観測所は地図上に黄色い丸と赤い丸で示す。

丸の上にカーソルを重ねると観測所名を参照できる。

次にクリックすると気象観測と天気予報を参照できる。

マップの切り替え:黒色「×」印の緑ボタンをクリックして拡大、「-」印の緑ボタンをクリックして縮小、緑色の三角印をクリックして隣りの地図に切り替え


METAR-TAF: